Linzy — SIRU — position and weather

sailwx.info

Track history (hours):
 
Tides and Currents Weather Stations Pressure Air Temp Water Temp Dewpoint Dewpoint Depression Visibility Wind Speed Wind Dir Waves Ship Positions

Linzy

Last reported at 2015-May-03 00:25 UTC. Time now 2015-May-04 09:00 UTC.
Position N 55°33' E 014°22'.

Length 15 m.

Type: Fishing. MMSI: 265507290.

Date/timePositionNaut miles runAvg speedWind from/ knotsBaromVisibWave heightAir tempDewpointWater temp
2015-May-03 00:25N 55°33' E 014°22'0 0.0
2015-May-02 23:31N 55°33' E 014°22'0 0.0
2015-May-02 22:31N 55°33' E 014°22'0 0.0
2015-May-02 21:19N 55°33' E 014°22'0 0.0
2015-May-02 20:31N 55°33' E 014°22'0 0.0
2015-May-02 19:31N 55°33' E 014°22'0 0.0
2015-May-02 18:25N 55°33' E 014°22'0 0.0
2015-May-02 17:25N 55°33' E 014°22'0 0.0
2015-May-02 16:13N 55°33' E 014°22'0 0.0
2015-May-02 15:25N 55°33' E 014°22'0 0.0
2015-May-02 14:25N 55°33' E 014°22'0 0.0
2015-May-02 13:31N 55°33' E 014°22'0 0.0
2015-May-02 12:31N 55°33' E 014°22'0 0.0
2015-May-02 10:25N 55°33' E 014°22'0 0.0
2015-May-02 09:31N 55°33' E 014°22'0 0.0
2015-May-02 08:07N 55°33' E 014°22'0 0.0
2015-May-02 07:31N 55°33' E 014°22'0 0.0
2015-May-02 06:13N 55°33' E 014°22'0 0.0
2015-May-02 04:25N 55°33' E 014°22'0 0.0
2015-May-02 03:31N 55°33' E 014°22'0 0.0
2015-May-02 02:31N 55°33' E 014°22'0 0.0
2015-May-02 01:25N 55°33' E 014°22'  
2015-Apr-29 00:31N 55°33' E 014°22'0 0.0
2015-Apr-28 23:19N 55°33' E 014°22'0 0.0
2015-Apr-28 22:31N 55°33' E 014°22'0 0.0
2015-Apr-28 21:26N 55°33' E 014°22'0 0.0
2015-Apr-28 20:26N 55°33' E 014°22'0 0.0
2015-Apr-28 19:32N 55°33' E 014°22'0 0.0
2015-Apr-28 18:32N 55°33' E 014°22'0 0.0
2015-Apr-28 16:20N 55°33' E 014°22'0 0.0
2015-Apr-28 15:28N 55°33' E 014°22'6 6.4
2015-Apr-28 14:33N 55°35' E 014°32'3 2.9
2015-Apr-28 13:31N 55°35' E 014°37'3 3.0
2015-Apr-28 12:33N 55°35' E 014°42'3 3.1
2015-Apr-28 11:33N 55°35' E 014°48'3 3.1
2015-Apr-28 10:33N 55°36' E 014°53'3 3.1
2015-Apr-28 09:33N 55°36' E 014°58'5 1.7
2015-Apr-28 06:32N 55°35' E 014°49'6 3.0
2015-Apr-28 04:32N 55°35' E 014°39'5 4.8
2015-Apr-28 03:33N 55°34' E 014°30'5 0.1
2015-Apr-26 15:20N 55°33' E 014°22'0 0.0
2015-Apr-26 14:26N 55°33' E 014°22'0 0.0
2015-Apr-26 13:32N 55°33' E 014°22'0 0.0
2015-Apr-26 08:08N 55°33' E 014°22'0 0.0
2015-Apr-26 07:20N 55°33' E 014°22'0 0.0
2015-Apr-26 05:26N 55°33' E 014°22'0 0.0
2015-Apr-26 01:26N 55°33' E 014°22'14 1.4
2015-Apr-25 15:27N 55°36' E 014°45'7 0.9
2015-Apr-25 07:33N 55°35' E 014°58'4 3.1
2015-Apr-25 06:07N 55°36' E 014°50'2 3.1
2015-Apr-25 05:29N 55°35' E 014°46'3 3.1
2015-Apr-25 04:27N 55°35' E 014°41'  
Track history (hours):
 
Tides and Currents Weather Stations Pressure Air Temp Water Temp Dewpoint Dewpoint Depression Visibility Wind Speed Wind Dir Waves Ship Positions

Linzy

Last reported at 2015-May-03 00:25 UTC. Time now 2015-May-04 09:00 UTC.
Position N 55°33' E 014°22'.

Length 15 m.

Type: Fishing. MMSI: 265507290.

Date/timePositionNaut miles runAvg speedWind from/ knotsBaromVisibWave heightAir tempDewpointWater temp
2015-May-03 00:25N 55°33' E 014°22'0 0.0
2015-May-02 23:31N 55°33' E 014°22'0 0.0
2015-May-02 22:31N 55°33' E 014°22'0 0.0
2015-May-02 21:19N 55°33' E 014°22'0 0.0
2015-May-02 20:31N 55°33' E 014°22'0 0.0
2015-May-02 19:31N 55°33' E 014°22'0 0.0
2015-May-02 18:25N 55°33' E 014°22'0 0.0
2015-May-02 17:25N 55°33' E 014°22'0 0.0
2015-May-02 16:13N 55°33' E 014°22'0 0.0
2015-May-02 15:25N 55°33' E 014°22'0 0.0
2015-May-02 14:25N 55°33' E 014°22'0 0.0
2015-May-02 13:31N 55°33' E 014°22'0 0.0
2015-May-02 12:31N 55°33' E 014°22'0 0.0
2015-May-02 10:25N 55°33' E 014°22'0 0.0
2015-May-02 09:31N 55°33' E 014°22'0 0.0
2015-May-02 08:07N 55°33' E 014°22'0 0.0
2015-May-02 07:31N 55°33' E 014°22'0 0.0
2015-May-02 06:13N 55°33' E 014°22'0 0.0
2015-May-02 04:25N 55°33' E 014°22'0 0.0
2015-May-02 03:31N 55°33' E 014°22'0 0.0
2015-May-02 02:31N 55°33' E 014°22'0 0.0
2015-May-02 01:25N 55°33' E 014°22'  
2015-Apr-29 00:31N 55°33' E 014°22'0 0.0
2015-Apr-28 23:19N 55°33' E 014°22'0 0.0
2015-Apr-28 22:31N 55°33' E 014°22'0 0.0
2015-Apr-28 21:26N 55°33' E 014°22'0 0.0
2015-Apr-28 20:26N 55°33' E 014°22'0 0.0
2015-Apr-28 19:32N 55°33' E 014°22'0 0.0
2015-Apr-28 18:32N 55°33' E 014°22'0 0.0
2015-Apr-28 16:20N 55°33' E 014°22'0 0.0
2015-Apr-28 15:28N 55°33' E 014°22'6 6.4
2015-Apr-28 14:33N 55°35' E 014°32'3 2.9
2015-Apr-28 13:31N 55°35' E 014°37'3 3.0
2015-Apr-28 12:33N 55°35' E 014°42'3 3.1
2015-Apr-28 11:33N 55°35' E 014°48'3 3.1
2015-Apr-28 10:33N 55°36' E 014°53'3 3.1
2015-Apr-28 09:33N 55°36' E 014°58'5 1.7
2015-Apr-28 06:32N 55°35' E 014°49'6 3.0
2015-Apr-28 04:32N 55°35' E 014°39'5 4.8
2015-Apr-28 03:33N 55°34' E 014°30'5 0.1
2015-Apr-26 15:20N 55°33' E 014°22'0 0.0
2015-Apr-26 14:26N 55°33' E 014°22'0 0.0
2015-Apr-26 13:32N 55°33' E 014°22'0 0.0
2015-Apr-26 08:08N 55°33' E 014°22'0 0.0
2015-Apr-26 07:20N 55°33' E 014°22'0 0.0
2015-Apr-26 05:26N 55°33' E 014°22'0 0.0
2015-Apr-26 01:26N 55°33' E 014°22'14 1.4
2015-Apr-25 15:27N 55°36' E 014°45'7 0.9
2015-Apr-25 07:33N 55°35' E 014°58'4 3.1
2015-Apr-25 06:07N 55°36' E 014°50'2 3.1
2015-Apr-25 05:29N 55°35' E 014°46'3 3.1
2015-Apr-25 04:27N 55°35' E 014°41'  

Dump ship's entire track history